Airfield :
LOGIN :

Register | Disclaimer

   EN    FR    IT 

 










Legend :    VFR   Marginal VFR   IFR   Intensive IFR   Very Intensive IFR
Visi :
Ceiling :
>= 8 km
>= 3000ft
5 to 8 km
1000 to 3000 ft
1500m to 5 km
500 to 1000 ft
800 to 1500m
200 to 500 ft
< 800m
< 200 ft
Symbols :   Thunderstorms  Fog  Heavy snow  Heavy precipitations  Wind > 20 kt
SIGMETs :     Misc.  Thunderstorms  Icing  Turbulence  Mountain Waves  Volcanic Ashes







- Airport Elevation : 935 ft


EBFS - Florennes

CURRENT METAR :
  • 300055Z AUTO VRB01KT 9999 /// 17/16 Q1014 BLU

EXPIRED METARs :
  • 300025Z AUTO VRB01KT 9999 /// 17/16 Q1014 BLU
  • 292355Z AUTO 25004KT 9999 /// 18/16 Q1014 BLU
  • 292325Z AUTO 26005KT 9999 /// 18/16 Q1015 BLU
  • 292255Z AUTO 27005KT 9999 /// 19/17 Q1015 BLU
  • 292225Z AUTO 32003KT 9999 /// 19/17 Q1014 BLU

TAF TAF EBFS
Valid from the 29 at 19:00 until the 30 at 07:00 UTC


291541Z 2919/3007 30005KT 9999 FEW040 BKN200
PROB40
TEMPO 2919/3000 30010G15KT 4000 SHRA SCT030 BKN200
PROB30
TEMPO 2919/2923 30010G30KT 2000 TSRAGS BKN025 BKN200
BECMG 3000/3002 25005KT SCT015 BKN160
TEMPO 3002/3007 4000 RADZ SCT008 BKN015
No reported NOTAMs for that airfield.



MET'MAP, your aeronautical weather chart ! - Copyright ORBIFLY December 2007 - Disclaimer

ORBIFLY MET'MAP TEAM :

Programming & Development : Alexandra Zaïnal
Concept & Development : Baudouin d'Aumeries
Co-Development & Prog : Marc-Olivier Méhu
Technical & hardware support : Manuel Goepfert

Contact : metmap@orbifly.com




SOURCES & CREDITS :

   NOAA